TimeCST,TemperatureF,Dew PointF,Humidity,Sea Level PressureIn,VisibilityMPH,Wind Direction,Wind SpeedMPH,Gust SpeedMPH,PrecipitationIn,Events,Conditions,WindDirDegrees,DateUTC
12:53 AM,48.0,30.9,52,30.24,10.0,SSE,5.8,-,N/A,,Clear,150,2012-11-18 06:53:00
1:53 AM,48.0,30.0,50,30.22,10.0,SE,6.9,-,N/A,,Clear,140,2012-11-18 07:53:00
2:53 AM,48.0,30.0,50,30.22,10.0,SE,8.1,-,N/A,,Clear,140,2012-11-18 08:53:00
3:53 AM,50.0,30.9,48,30.21,10.0,SE,10.4,-,N/A,,Overcast,140,2012-11-18 09:53:00
4:53 AM,50.0,30.9,48,30.20,10.0,SSE,9.2,-,N/A,,Overcast,150,2012-11-18 10:53:00
5:53 AM,51.1,32.0,48,30.21,10.0,SSE,12.7,-,N/A,,Overcast,160,2012-11-18 11:53:00
6:53 AM,53.1,32.0,45,30.20,10.0,SSE,10.4,-,N/A,,Overcast,160,2012-11-18 12:53:00
7:53 AM,53.1,33.1,47,30.22,10.0,SSE,11.5,-,N/A,,Overcast,160,2012-11-18 13:53:00
8:53 AM,53.1,34.0,48,30.22,10.0,SSE,11.5,-,N/A,,Overcast,160,2012-11-18 14:53:00
9:53 AM,57.0,34.0,42,30.20,10.0,SSE,17.3,23.0,N/A,,Overcast,160,2012-11-18 15:53:00
10:53 AM,63.0,37.9,40,30.20,10.0,South,23.0,26.5,N/A,,Clear,170,2012-11-18 16:53:00
11:53 AM,66.9,39.9,37,30.17,10.0,South,19.6,28.8,N/A,,Partly Cloudy,170,2012-11-18 17:53:00
12:53 PM,66.0,39.9,38,30.13,10.0,South,20.7,27.6,N/A,,Clear,170,2012-11-18 18:53:00
1:53 PM,70.0,41.0,35,30.10,10.0,SSE,20.7,27.6,N/A,,Clear,160,2012-11-18 19:53:00
2:53 PM,68.0,39.9,36,30.10,10.0,SSE,21.9,26.5,N/A,,Clear,160,2012-11-18 20:53:00
3:53 PM,66.9,39.0,36,30.11,10.0,SSE,18.4,-,N/A,,Clear,160,2012-11-18 21:53:00
4:53 PM,66.0,37.9,36,30.11,10.0,SSE,12.7,-,N/A,,Clear,160,2012-11-18 22:53:00
5:53 PM,62.1,37.0,39,30.12,10.0,SSE,12.7,-,N/A,,Scattered Clouds,150,2012-11-18 23:53:00
6:53 PM,62.1,37.0,39,30.13,10.0,SSE,10.4,-,N/A,,Partly Cloudy,150,2012-11-19 00:53:00
7:53 PM,57.9,43.0,58,30.14,10.0,SE,9.2,-,0.00,,Mostly Cloudy,140,2012-11-19 01:53:00
8:53 PM,57.0,42.1,57,30.15,10.0,SE,9.2,-,N/A,,Overcast,140,2012-11-19 02:53:00
9:53 PM,57.9,41.0,53,30.13,10.0,SE,11.5,-,N/A,,Overcast,140,2012-11-19 03:53:00
10:53 PM,57.0,41.0,55,30.12,10.0,SSE,10.4,-,N/A,,Clear,150,2012-11-19 04:53:00
11:53 PM,55.9,41.0,57,30.12,10.0,SE,9.2,-,N/A,,Overcast,140,2012-11-19 05:53:00